Terminal Aerodrome Forecast
Issued by NWS

Home | Current Version | Previous Version | Text Only | Print | Product List | Glossary On
Versions: 1 2 3 4 5 6 7 8 9 10 11 12 13 14 15 16 17 18 19 20 21 22 23
000
FTUS46 KSGX 290500
TAFCRQ
TAF
KCRQ 290520Z 2906/3006 VRB04KT P6SM SCT200
     FM291000 VRB04KT 5SM BR BKN007
     FM291500 VRB04KT P6SM FEW007 SCT200
     FM291900 26008KT P6SM SCT200
     FM300000 VRB04KT P6SM FEW008 SCT200=

USA.gov is the U.S. government's official web portal to all federal, state and local government web resources and services.